Time;durP1;ratioP1;P1;durP2;ratioP2;P2;SDS_P1;SDS_P2;PMS_P1;PMS_P2;Temp;Humidity;BMP_temperature;BMP_pressure;BME280_temperature;BME280_humidity;BME280_pressure;Samples;Min_cycle;Max_cycle;Signal;HPM_P1;HPM_P2
2021/04/17 04:18:57;;;;;;;7.65;6.82;;;3.80;73.90;;;;;;5865025;23;20192;-88
2021/04/17 04:48:55;;;;;;;8.48;6.97;;;3.80;64.60;;;;;;6026820;23;20181;-89
2021/04/17 04:56:44;;;;;;;7.63;6.97;;;3.90;79.30;;;;;;5738645;23;20206;-90
2021/04/17 05:01:45;;;;;;;8.25;6.95;;;4.10;78.40;;;;;;5496467;23;20254;-91
2021/04/17 05:38:11;;;;;;;8.15;7.35;;;;;;;;;;5667882;23;20230;-89
2021/04/17 05:45:50;;;;;;;11.77;6.60;;;5.70;60.10;;;;;;4938298;23;10002258;-88
2021/04/17 05:48:16;;;;;;;6.75;6.25;;;5.80;64.30;;;;;;4976605;28;20182;-91
2021/04/17 05:50:44;;;;;;;6.83;6.33;;;10.00;67.20;;;;;;4988903;28;20183;-92
2021/04/17 05:53:14;;;;;;;6.73;6.13;;;6.40;57.20;;;;;;4972671;28;20251;-91
2021/04/17 05:55:40;;;;;;;7.25;6.65;;;8.40;58.40;;;;;;4968531;28;20474;-93
2021/04/17 05:58:06;;;;;;;6.10;5.70;;;9.90;61.00;;;;;;4955716;29;20197;-93
2021/04/17 06:00:35;;;;;;;6.60;6.10;;;11.10;57.00;;;;;;4954376;29;20178;-90
2021/04/17 06:03:05;;;;;;;6.50;6.00;;;11.00;57.20;;;;;;4972169;28;20430;-93
2021/04/17 06:05:31;;;;;;;6.70;6.10;;;13.10;56.90;;;;;;4953919;29;20430;-91
2021/04/17 06:07:57;;;;;;;8.37;6.50;;;9.50;56.90;;;;;;4970008;28;20426;-92
2021/04/17 06:10:23;;;;;;;5.90;5.60;;;8.20;54.30;;;;;;4950777;29;20458;-92
2021/04/17 06:12:49;;;;;;;6.77;6.47;;;10.10;52.40;;;;;;4932931;29;20183;-91
2021/04/17 06:15:20;;;;;;;7.00;6.43;;;10.50;52.70;;;;;;4949552;29;20482;-94
2021/04/17 06:17:50;;;;;;;6.47;6.00;;;10.70;50.50;;;;;;4966325;28;20421;-93
2021/04/17 06:20:16;;;;;;;6.13;5.83;;;10.40;50.50;;;;;;4950555;28;20434;-92
2021/04/17 06:22:42;;;;;;;11.33;6.20;;;11.50;49.20;;;;;;4953761;28;20417;-94
2021/04/17 06:25:08;;;;;;;8.00;6.53;;;13.30;50.00;;;;;;4950600;29;20431;-93
2021/04/17 06:27:34;;;;;;;8.30;7.60;;;13.40;47.70;;;;;;4967634;28;20410;-91
2021/04/17 06:30:02;;;;;;;8.30;6.88;;;12.80;45.90;;;;;;4969951;28;20402;-93
2021/04/17 06:32:33;;;;;;;6.90;6.07;;;13.20;45.10;;;;;;4970379;28;20174;-91
2021/04/17 06:34:59;;;;;;;24.20;8.70;;;14.50;44.70;;;;;;4954080;28;20466;-93
2021/04/17 06:37:28;;;;;;;7.57;6.90;;;13.80;44.20;;;;;;4952703;29;20506;-93
2021/04/17 06:39:53;;;;;;;6.77;6.20;;;13.70;43.60;;;;;;4951707;29;20422;-92
2021/04/17 06:42:25;;;;;;;7.20;6.33;;;14.00;43.50;;;;;;4955567;29;20538;-92
2021/04/17 06:44:54;;;;;;;6.30;5.90;;;13.40;40.40;;;;;;4967478;28;20504;-93
2021/04/17 06:47:22;;;;;;;6.20;5.90;;;14.10;39.00;;;;;;4974930;28;20429;-92
2021/04/17 06:49:50;;;;;;;6.73;6.23;;;15.80;39.50;;;;;;4991762;28;20444;-93
2021/04/17 06:52:30;;;;;;;5.97;5.60;;;13.90;36.40;;;;;;4964438;29;20453;-91
2021/04/17 06:54:58;;;;;;;6.03;5.50;;;15.70;36.70;;;;;;4961170;28;20504;-88
2021/04/17 06:57:24;;;;;;;7.67;6.90;;;14.10;34.60;;;;;;4952208;28;20469;-85
2021/04/17 06:59:51;;;;;;;19.03;8.00;;;14.90;34.60;;;;;;4953473;29;20426;-87
2021/04/17 07:02:17;;;;;;;6.37;5.73;;;15.20;34.40;;;;;;4936182;28;20433;-88
2021/04/17 07:04:43;;;;;;;7.50;6.87;;;15.40;34.30;;;;;;4953002;28;20415;-88
2021/04/17 07:07:10;;;;;;;5.70;5.40;;;15.40;33.20;;;;;;4954502;28;20410;-86
2021/04/17 07:09:37;;;;;;;6.40;6.00;;;15.40;33.00;;;;;;4952878;29;20518;-86
2021/04/17 07:12:03;;;;;;;7.63;6.70;;;15.80;33.90;;;;;;4935955;29;20415;-88
2021/04/17 07:14:44;;;;;;;6.53;6.07;;;16.20;32.50;;;;;;4936148;29;20845;-88
2021/04/17 07:17:10;;;;;;;7.23;6.73;;;16.80;31.50;;;;;;4936093;29;20411;-88
2021/04/17 07:19:54;;;;;;;6.20;5.80;;;17.10;31.20;;;;;;4921486;29;20414;-91
2021/04/17 07:22:19;;;;;;;6.70;6.20;;;18.10;31.20;;;;;;4940534;28;20498;-90
2021/04/17 07:24:46;;;;;;;30.47;9.20;;;16.60;30.40;;;;;;4973637;28;20430;-90
2021/04/17 07:27:41;;;;;;;5.83;5.57;;;18.00;31.90;;;;;;4939048;28;20180;-91
2021/04/17 07:30:19;;;;;;;8.33;7.53;;;17.00;30.00;;;;;;4956807;29;20430;-91
2021/04/17 07:33:02;;;;;;;6.03;5.63;;;20.20;33.90;;;;;;4938309;29;20926;-93
2021/04/17 07:35:43;;;;;;;6.90;6.30;;;20.30;30.30;;;;;;4949720;29;20470;-90
2021/04/17 07:38:11;;;;;;;11.63;6.80;;;18.00;29.20;;;;;;4928534;29;20756;-93
2021/04/17 07:40:38;;;;;;;6.50;6.00;;;18.50;28.90;;;;;;4945217;29;20451;-92
2021/04/17 07:43:03;;;;;;;7.80;7.00;;;17.20;28.10;;;;;;4931473;29;20459;-92
2021/04/17 07:45:38;;;;;;;7.93;7.20;;;19.20;30.80;;;;;;4947414;29;20553;-93
2021/04/17 07:48:31;;;;;;;6.60;6.03;;;18.30;28.50;;;;;;4943308;28;20174;-85
2021/04/17 07:50:59;;;;;;;15.87;7.60;;;18.80;28.40;;;;;;4958115;28;20429;-87
2021/04/17 07:53:39;;;;;;;7.33;6.70;;;19.30;28.00;;;;;;4969385;28;20414;-90
2021/04/17 07:56:27;;;;;;;8.57;7.80;;;19.60;27.30;;;;;;4943769;28;20442;-90
2021/04/17 07:59:00;;;;;;;6.87;6.37;;;19.20;27.50;;;;;;4966170;28;20433;-92
2021/04/17 08:01:27;;;;;;;7.83;7.10;;;18.80;28.00;;;;;;4946050;29;20494;-90
2021/04/17 08:03:56;;;;;;;7.80;7.30;;;18.70;28.20;;;;;;4944309;29;20418;-90
2021/04/17 08:06:24;;;;;;;7.30;6.60;;;20.00;28.50;;;;;;4944182;28;20418;-91
2021/04/17 08:08:55;;;;;;;9.10;7.97;;;17.60;27.40;;;;;;4600253;28;10000103;-92
2021/04/17 08:11:24;;;;;;;6.40;6.03;;;19.20;27.90;;;;;;4959685;29;20175;-90
2021/04/17 08:13:51;;;;;;;5.97;5.47;;;18.10;26.90;;;;;;4941205;29;20446;-89
2021/04/17 08:16:18;;;;;;;6.30;5.80;;;18.40;27.80;;;;;;4963848;28;20416;-92
2021/04/17 08:18:45;;;;;;;7.80;7.00;;;18.90;28.00;;;;;;4958700;29;20406;-89
2021/04/17 08:21:13;;;;;;;9.07;6.20;;;19.50;27.70;;;;;;4956565;28;20426;-89
2021/04/17 08:23:50;;;;;;;5.90;5.50;;;20.80;28.50;;;;;;4948606;28;20426;-92
2021/04/17 08:26:34;;;;;;;6.80;5.77;;;19.20;27.20;;;;;;4946582;28;20440;-90
2021/04/17 08:29:01;;;;;;;9.70;6.47;;;18.00;28.30;;;;;;4970987;28;20414;-91
2021/04/17 08:31:46;;;;;;;6.13;5.03;;;18.90;28.70;;;;;;4960188;28;20402;-89
2021/04/17 08:34:22;;;;;;;7.60;5.20;;;21.70;28.60;;;;;;4960423;28;20560;-93
2021/04/17 08:37:01;;;;;;;6.33;5.80;;;22.30;29.30;;;;;;5044997;23;20490;-90
2021/04/17 08:39:36;;;;;;;5.67;5.20;;;20.10;27.40;;;;;;4940785;29;20514;-89
2021/04/17 08:42:08;;;;;;;6.10;5.80;;;20.30;27.50;;;;;;4941090;29;20415;-89
2021/04/17 08:44:40;;;;;;;6.60;6.10;;;19.80;27.30;;;;;;4946748;29;20511;-88
2021/04/17 08:47:08;;;;;;;15.37;7.23;;;20.60;27.40;;;;;;4947494;29;20410;-87
2021/04/17 08:49:39;;;;;;;6.10;5.70;;;19.40;27.40;;;;;;4942820;29;20430;-87
2021/04/17 08:52:22;;;;;;;9.30;5.70;;;19.50;27.50;;;;;;4938564;29;20415;-86
2021/04/17 08:55:16;;;;;;;5.90;5.53;;;19.80;27.60;;;;;;4920786;29;20486;-85
2021/04/17 08:57:42;;;;;;;8.70;5.20;;;20.40;26.90;;;;;;4938245;29;20759;-86
2021/04/17 09:00:08;;;;;;;6.33;5.10;;;20.40;26.40;;;;;;4578639;29;10000079;-87
2021/04/17 09:02:45;;;;;;;4.97;4.77;;;20.20;26.60;;;;;;4935613;29;20414;-86
2021/04/17 09:05:16;;;;;;;5.27;5.03;;;20.10;26.40;;;;;;4934967;29;20433;-87
2021/04/17 09:07:47;;;;;;;5.57;5.30;;;20.30;27.00;;;;;;4935178;29;20411;-86
2021/04/17 09:10:31;;;;;;;6.00;5.27;;;21.00;26.80;;;;;;4935799;29;20434;-87
2021/04/17 09:13:09;;;;;;;5.23;4.83;;;21.20;26.70;;;;;;4954530;29;20569;-86
2021/04/17 09:15:52;;;;;;;5.57;5.00;;;21.40;26.40;;;;;;4954396;29;20478;-85
2021/04/17 09:18:33;;;;;;;4.07;3.90;;;21.40;25.70;;;;;;4937977;29;20418;-86
2021/04/17 09:21:00;;;;;;;5.87;5.30;;;20.90;25.90;;;;;;4953826;29;20418;-86
2021/04/17 09:23:43;;;;;;;4.47;4.07;;;21.70;26.60;;;;;;4953762;29;20445;-86
2021/04/17 09:26:09;;;;;;;4.47;4.03;;;20.80;25.50;;;;;;4937516;29;20438;-86
2021/04/17 09:28:35;;;;;;;4.53;3.90;;;19.90;25.90;;;;;;4954052;29;20918;-86
2021/04/17 09:31:02;;;;;;;4.50;4.30;;;19.70;26.40;;;;;;4954734;29;20171;-85
2021/04/17 09:33:29;;;;;;;5.27;4.77;;;20.20;26.10;;;;;;4936953;28;20424;-84
2021/04/17 09:35:54;;;;;;;4.60;4.30;;;19.60;26.30;;;;;;4937207;29;20474;-86
2021/04/17 09:38:22;;;;;;;6.00;4.50;;;18.70;27.00;;;;;;4946932;28;20501;-84
2021/04/17 09:40:55;;;;;;;6.63;6.10;;;18.90;27.00;;;;;;4940762;29;20427;-87
2021/04/17 09:43:28;;;;;;;5.23;5.00;;;18.40;27.30;;;;;;4919931;29;20447;-86
2021/04/17 09:45:56;;;;;;;4.90;4.50;;;19.00;27.10;;;;;;4936401;29;20418;-86
2021/04/17 09:48:22;;;;;;;7.77;7.13;;;19.40;26.80;;;;;;4937233;29;20430;-86
2021/04/17 09:50:56;;;;;;;56.30;11.57;;;20.50;27.00;;;;;;4955453;29;20679;-85
2021/04/17 09:53:31;;;;;;;6.00;4.60;;;21.50;26.50;;;;;;4955301;28;20407;-85
2021/04/17 09:56:07;;;;;;;8.80;7.90;;;21.80;25.90;;;;;;4955849;29;20433;-86
2021/04/17 09:58:38;;;;;;;5.68;5.00;;;21.50;26.10;;;;;;4613124;29;9999883;-86
2021/04/17 10:01:09;;;;;;;5.10;4.67;;;20.90;26.00;;;;;;4953970;29;20181;-86
2021/04/17 10:03:38;;;;;;;7.93;5.83;;;20.20;26.30;;;;;;4952102;29;20457;-85
2021/04/17 10:06:21;;;;;;;5.03;4.37;;;19.60;26.80;;;;;;4952809;29;20469;-87
2021/04/17 10:08:46;;;;;;;5.50;5.10;;;19.50;26.70;;;;;;4936062;29;20891;-87
2021/04/17 10:11:26;;;;;;;5.20;4.90;;;19.30;26.70;;;;;;4948796;28;20434;-86
2021/04/17 10:13:52;;;;;;;5.20;4.70;;;19.20;27.10;;;;;;4948438;29;20205;-87
2021/04/17 10:16:32;;;;;;;8.00;6.40;;;19.30;27.10;;;;;;4956499;29;20776;-84
2021/04/17 10:18:59;;;;;;;8.93;7.73;;;19.30;26.60;;;;;;4918737;29;21014;-85
2021/04/17 10:21:27;;;;;;;4.33;4.00;;;20.10;26.70;;;;;;4936394;29;20450;-87
2021/04/17 10:24:15;;;;;;;4.70;4.40;;;20.20;26.40;;;;;;4938973;29;20914;-86
2021/04/17 10:26:58;;;;;;;5.43;4.97;;;20.30;26.10;;;;;;4937293;29;20408;-84
2021/04/17 10:29:45;;;;;;;5.70;4.47;;;19.50;26.20;;;;;;4936852;29;20411;-87
2021/04/17 10:32:19;;;;;;;5.00;4.50;;;19.00;26.40;;;;;;4937946;29;20502;-89
2021/04/17 10:35:00;;;;;;;5.33;4.93;;;18.70;27.10;;;;;;4924817;29;20508;-87
2021/04/17 10:37:29;;;;;;;8.63;5.50;;;19.40;27.30;;;;;;4924396;29;20491;-90
2021/04/17 10:40:07;;;;;;;5.63;5.23;;;19.30;26.80;;;;;;5001854;23;20990;-84
2021/04/17 10:42:57;;;;;;;6.30;5.67;;;18.80;27.00;;;;;;4961884;28;20426;-84
2021/04/17 10:45:36;;;;;;;5.10;4.70;;;18.30;27.00;;;;;;4938006;29;21020;-84
2021/04/17 10:48:09;;;;;;;5.37;4.97;;;18.00;27.90;;;;;;4938418;29;20886;-85
2021/04/17 10:50:59;;;;;;;7.60;6.67;;;17.40;27.50;;;;;;4956604;28;20441;-86
2021/04/17 10:53:28;;;;;;;5.90;5.37;;;17.20;27.70;;;;;;4956066;29;20406;-84
2021/04/17 10:55:56;;;;;;;6.43;5.80;;;17.50;28.40;;;;;;4958690;29;20474;-85
2021/04/17 10:58:31;;;;;;;14.63;7.40;;;17.30;27.70;;;;;;4956107;28;20457;-86
2021/04/17 11:01:01;;;;;;;7.30;4.60;;;16.90;28.20;;;;;;4940044;29;20504;-87
2021/04/17 11:03:30;;;;;;;5.67;5.27;;;16.90;28.30;;;;;;4958348;28;20414;-85
2021/04/17 11:05:56;;;;;;;5.77;4.60;;;16.80;28.60;;;;;;4954753;28;20423;-85
2021/04/17 11:08:28;;;;;;;6.73;6.10;;;17.00;28.70;;;;;;4954897;29;20410;-86
2021/04/17 11:10:54;;;;;;;5.47;5.23;;;17.30;28.20;;;;;;4955306;28;20445;-86
2021/04/17 11:13:32;;;;;;;11.93;8.63;;;17.00;28.10;;;;;;4937908;29;20414;-86
2021/04/17 11:15:59;;;;;;;8.50;7.23;;;17.20;28.60;;;;;;4937065;29;20541;-86
2021/04/17 11:18:31;;;;;;;5.87;5.37;;;17.30;28.50;;;;;;4954912;28;20461;-85
2021/04/17 11:20:59;;;;;;;8.53;7.63;;;17.30;27.30;;;;;;4954752;29;20422;-86
2021/04/17 11:23:45;;;;;;;24.40;15.53;;;18.00;27.70;;;;;;4937661;29;20549;-85
2021/04/17 11:26:15;;;;;;;16.63;12.80;;;18.80;27.10;;;;;;4954488;28;20744;-86
2021/04/17 11:28:44;;;;;;;6.23;5.77;;;19.40;27.40;;;;;;4954521;29;20438;-85
2021/04/17 11:31:11;;;;;;;7.00;6.40;;;19.60;26.70;;;;;;4954539;29;20417;-86
2021/04/17 11:33:37;;;;;;;7.60;6.17;;;19.60;27.10;;;;;;4955575;29;20410;-84
2021/04/17 11:36:04;;;;;;;7.53;6.80;;;19.40;26.90;;;;;;4953693;28;20925;-86
2021/04/17 11:38:29;;;;;;;6.20;5.60;;;18.70;27.30;;;;;;4955414;29;20414;-85
2021/04/17 11:40:55;;;;;;;6.60;6.10;;;18.20;27.00;;;;;;4937792;29;20574;-86
2021/04/17 11:43:30;;;;;;;7.93;7.17;;;17.90;27.40;;;;;;4943867;29;20187;-93
2021/04/17 11:45:56;;;;;;;7.87;6.63;;;17.20;27.10;;;;;;4969229;28;20445;-88
2021/04/17 11:48:22;;;;;;;8.10;6.67;;;17.50;28.20;;;;;;4958632;28;20466;-90
2021/04/17 11:51:10;;;;;;;4.27;4.07;;;18.80;27.20;;;;;;4972953;28;20426;-88
2021/04/17 11:53:37;;;;;;;5.03;4.00;;;19.60;26.20;;;;;;4954483;28;20414;-86
2021/04/17 11:56:10;;;;;;;3.73;3.63;;;17.40;24.50;;;;;;4965239;29;20430;-89
2021/04/17 11:58:47;;;;;;;4.53;3.77;;;16.90;24.50;;;;;;4948715;29;20425;-90
2021/04/17 12:01:13;;;;;;;3.80;3.60;;;20.10;26.50;;;;;;5072645;23;20850;-91
2021/04/17 12:03:55;;;;;;;3.73;3.63;;;20.50;27.10;;;;;;4970842;29;20429;-91
2021/04/17 12:08:56;;;;;;;3.53;3.30;;;19.70;24.60;;;;;;5215935;23;20228;-90
2021/04/17 12:11:36;;;;;;;3.60;3.30;;;20.20;24.90;;;;;;4968342;29;20442;-94
2021/04/17 12:14:03;;;;;;;3.23;3.07;;;20.10;24.30;;;;;;4956636;29;20549;-90
2021/04/17 12:16:33;;;;;;;2.97;2.87;;;21.00;24.80;;;;;;4944820;23;20418;-91
2021/04/17 12:19:01;;;;;;;3.30;2.93;;;19.70;23.10;;;;;;4961540;29;20403;-92
2021/04/17 12:22:03;;;;;;;2.90;2.57;;;20.70;24.50;;;;;;4961359;28;20490;-92
2021/04/17 12:24:30;;;;;;;5.67;2.60;;;18.00;22.60;;;;;;4959708;28;20416;-90
2021/04/17 12:26:55;;;;;;;3.00;2.40;;;19.00;25.10;;;;;;5134459;23;20476;-90
2021/04/17 12:29:44;;;;;;;7.53;6.47;;;19.80;25.00;;;;;;4939008;28;20446;-90
2021/04/17 12:35:20;;;;;;;4.97;4.60;;;21.60;24.10;;;;;;1519328;23;20758;-86
2021/04/17 12:38:14;;;;;;;3.67;3.37;;;22.80;26.10;;;;;;4974054;23;20505;-92
2021/04/17 12:40:54;;;;;;;3.63;3.40;;;20.50;24.40;;;;;;4997164;28;20432;-91
2021/04/17 12:43:21;;;;;;;5.43;4.10;;;20.00;25.70;;;;;;4995147;28;20485;-91
2021/04/17 12:45:50;;;;;;;23.93;20.27;;;18.60;25.30;;;;;;4979228;28;20433;-86
2021/04/17 12:48:42;;;;;;;6.37;4.17;;;18.10;25.60;;;;;;4996886;28;20410;-91
2021/04/17 12:51:33;;;;;;;7.93;7.23;;;17.70;25.40;;;;;;5384391;23;20448;-91
2021/04/17 12:54:43;;;;;;;4.33;4.03;;;17.10;25.70;;;;;;4938581;29;20506;-92
2021/04/17 12:57:28;;;;;;;4.30;3.70;;;17.20;26.10;;;;;;5212052;23;20497;-91
2021/04/17 12:59:55;;;;;;;5.97;5.50;;;17.70;28.10;;;;;;4967264;28;20439;-89
2021/04/17 13:02:21;;;;;;;4.17;3.67;;;17.90;28.10;;;;;;4990580;28;20491;-90
2021/04/17 13:04:48;;;;;;;10.27;9.53;;;16.90;28.00;;;;;;4987088;28;20438;-92
2021/04/17 13:07:14;;;;;;;5.03;4.63;;;16.60;26.90;;;;;;4958212;28;20241;-89
2021/04/17 13:09:41;;;;;;;4.10;4.00;;;15.80;28.20;;;;;;4971480;28;20425;-91
2021/04/17 13:12:08;;;;;;;4.60;4.10;;;15.70;27.10;;;;;;4969452;28;20447;-92
2021/04/17 13:14:33;;;;;;;5.10;4.67;;;15.80;27.30;;;;;;4983180;28;20547;-91
2021/04/17 13:16:59;;;;;;;5.03;4.43;;;17.40;28.60;;;;;;4970877;28;20430;-90
2021/04/17 13:19:25;;;;;;;9.73;4.10;;;18.20;29.50;;;;;;4968846;28;20425;-92
2021/04/17 13:21:52;;;;;;;4.13;3.80;;;17.70;29.00;;;;;;4980919;28;20213;-92
2021/04/17 13:24:19;;;;;;;4.33;4.00;;;17.10;28.10;;;;;;4957726;28;20940;-92
2021/04/17 13:26:44;;;;;;;4.03;3.83;;;16.50;28.70;;;;;;4964019;28;20437;-91
2021/04/17 13:29:10;;;;;;;8.87;6.97;;;16.10;29.40;;;;;;4969544;28;20509;-90
2021/04/17 13:31:36;;;;;;;7.43;5.80;;;16.00;28.30;;;;;;4968560;28;20430;-90
2021/04/17 13:34:07;;;;;;;3.47;3.20;;;17.90;28.60;;;;;;4985054;28;20230;-91
2021/04/17 13:41:41;;;;;;;7.73;4.90;;;16.00;27.30;;;;;;5079076;23;21401;-90
2021/04/17 13:54:46;;;;;;;4.10;3.80;;;15.10;28.30;;;;;;5222507;23;10003009;-88
2021/04/17 13:57:11;;;;;;;16.03;10.00;;;16.50;30.60;;;;;;4977650;28;20220;-91
2021/04/17 13:59:41;;;;;;;12.67;7.47;;;16.20;30.00;;;;;;5118333;23;20217;-89
2021/04/17 14:02:15;;;;;;;4.60;4.40;;;16.70;30.10;;;;;;5322296;23;20737;-89
2021/04/17 14:04:42;;;;;;;4.80;4.40;;;16.90;28.70;;;;;;5345298;23;20492;-89
2021/04/17 14:07:07;;;;;;;4.27;3.20;;;15.70;28.30;;;;;;4976547;28;20438;-90
2021/04/17 14:09:33;;;;;;;4.23;3.20;;;16.40;28.10;;;;;;4960695;28;20463;-90
2021/04/17 14:11:59;;;;;;;3.60;3.40;;;16.30;26.60;;;;;;4976404;28;20236;-90
2021/04/17 14:14:26;;;;;;;4.70;4.27;;;15.50;26.50;;;;;;5136846;23;20718;-88
2021/04/17 14:16:55;;;;;;;14.73;3.83;;;17.30;28.10;;;;;;4978420;28;20465;-91
2021/04/17 14:24:39;;;;;;;6.80;3.57;;;17.90;25.90;;;;;;4973319;28;20513;-88
2021/04/17 14:27:13;;;;;;;4.77;4.47;;;18.10;26.40;;;;;;5093256;23;20478;-90
2021/04/17 14:29:42;;;;;;;5.03;4.73;;;18.00;26.60;;;;;;5159463;23;20851;-91
2021/04/17 14:32:11;;;;;;;4.33;3.93;;;19.60;28.70;;;;;;4956700;28;20490;-88
2021/04/17 14:34:36;;;;;;;6.30;3.70;;;21.30;27.90;;;;;;4952739;28;20478;-85
2021/04/17 14:37:02;;;;;;;4.70;4.40;;;21.30;26.10;;;;;;4935224;29;20423;-86
2021/04/17 14:39:28;;;;;;;3.93;3.73;;;21.20;26.30;;;;;;4952042;28;20181;-87
2021/04/17 14:41:54;;;;;;;4.93;4.70;;;20.30;25.90;;;;;;4952482;29;20230;-84
2021/04/17 14:44:20;;;;;;;4.63;4.23;;;18.60;25.60;;;;;;4948087;28;20525;-85
2021/04/17 14:46:45;;;;;;;6.33;4.10;;;17.80;26.30;;;;;;4933318;29;20646;-84
2021/04/17 14:49:15;;;;;;;5.40;4.90;;;16.90;26.90;;;;;;4934788;29;20664;-84
2021/04/17 14:51:42;;;;;;;4.00;3.70;;;16.90;27.10;;;;;;4916838;29;20179;-84
2021/04/17 14:54:08;;;;;;;4.10;3.83;;;16.60;27.10;;;;;;4934604;29;20808;-86
2021/04/17 14:56:34;;;;;;;5.97;5.37;;;15.90;27.20;;;;;;4934496;29;20457;-86
2021/04/17 14:59:02;;;;;;;5.80;4.37;;;15.90;27.70;;;;;;4934633;29;20934;-84
2021/04/17 15:01:30;;;;;;;5.10;4.53;;;15.70;27.50;;;;;;4918362;29;20508;-85
2021/04/17 15:03:56;;;;;;;17.00;11.30;;;15.70;27.80;;;;;;4953946;29;20825;-84
2021/04/17 15:06:22;;;;;;;5.53;5.03;;;15.70;28.00;;;;;;4954414;29;20421;-84
2021/04/17 15:08:48;;;;;;;5.77;5.30;;;15.90;27.80;;;;;;4610416;28;10000346;-85
2021/04/17 15:11:14;;;;;;;5.73;5.47;;;15.90;27.80;;;;;;4952852;29;20724;-85
2021/04/17 15:13:40;;;;;;;6.43;5.87;;;15.80;27.40;;;;;;4951014;28;20170;-85
2021/04/17 15:16:07;;;;;;;8.30;4.30;;;15.80;27.50;;;;;;4951141;29;20470;-85
2021/04/17 15:18:36;;;;;;;6.07;4.30;;;15.90;27.80;;;;;;4951882;28;20419;-83
2021/04/17 15:21:03;;;;;;;5.53;3.60;;;16.10;27.50;;;;;;4948501;28;20418;-85
2021/04/17 15:23:29;;;;;;;4.13;3.90;;;16.20;27.50;;;;;;4944125;29;20450;-84
2021/04/17 15:25:54;;;;;;;4.23;4.03;;;16.00;27.10;;;;;;4950381;29;20816;-85
2021/04/17 15:28:29;;;;;;;12.17;5.90;;;15.70;26.90;;;;;;4941288;29;20458;-85
2021/04/17 15:30:55;;;;;;;8.77;5.30;;;15.60;27.30;;;;;;4931632;29;20222;-86
2021/04/17 15:33:21;;;;;;;8.03;4.43;;;15.60;27.30;;;;;;4914071;29;20438;-85
2021/04/17 15:35:52;;;;;;;21.27;13.80;;;15.70;27.30;;;;;;4932439;29;20872;-84
2021/04/17 15:38:21;;;;;;;55.70;27.83;;;15.70;27.50;;;;;;4932134;29;20438;-86
2021/04/17 15:40:51;;;;;;;60.57;29.50;;;15.70;27.60;;;;;;4950530;28;20440;-85
2021/04/17 15:43:17;;;;;;;5.17;4.23;;;16.00;27.70;;;;;;4951072;29;20576;-85
2021/04/17 15:45:43;;;;;;;10.30;5.63;;;16.00;27.40;;;;;;4951557;28;20429;-86
2021/04/17 15:48:09;;;;;;;3.53;3.33;;;15.80;27.30;;;;;;4944928;28;20425;-86
2021/04/17 15:50:35;;;;;;;5.07;4.77;;;15.90;27.60;;;;;;4969988;28;20752;-87
2021/04/17 15:53:04;;;;;;;10.80;7.63;;;15.90;27.00;;;;;;4974833;28;20174;-84
2021/04/17 15:55:30;;;;;;;4.73;4.30;;;16.00;27.30;;;;;;4973080;28;21026;-85
2021/04/17 16:14:25;;;;;;;4.00;3.70;;;15.20;26.70;;;;;;5163705;23;20606;-89
2021/04/17 16:16:51;;;;;;;3.77;3.20;;;15.50;27.30;;;;;;4984536;28;20456;-90
2021/04/17 16:19:17;;;;;;;4.43;4.03;;;16.20;27.90;;;;;;4983545;28;20721;-89
2021/04/17 16:21:44;;;;;;;7.93;4.50;;;15.70;27.70;;;;;;4982237;28;20491;-91
2021/04/17 16:24:11;;;;;;;5.00;4.33;;;15.50;28.00;;;;;;4982765;28;20441;-92
2021/04/17 16:26:39;;;;;;;4.33;3.63;;;14.40;27.80;;;;;;4974335;28;20459;-88
2021/04/17 16:29:10;;;;;;;4.30;3.90;;;14.00;27.70;;;;;;4973849;28;20422;-90
2021/04/17 16:31:37;;;;;;;4.93;4.17;;;13.90;28.00;;;;;;4973461;28;20425;-88
2021/04/17 16:34:04;;;;;;;4.40;4.10;;;15.40;28.70;;;;;;4974964;28;20421;-89
2021/04/17 16:36:30;;;;;;;4.30;3.93;;;14.30;28.30;;;;;;4974253;28;20437;-90
2021/04/17 16:38:56;;;;;;;7.43;5.70;;;15.70;29.20;;;;;;4958399;28;20532;-90
2021/04/17 16:41:22;;;;;;;7.20;4.90;;;16.00;30.00;;;;;;4975616;28;20432;-88
2021/04/17 16:43:48;;;;;;;4.70;4.30;;;15.60;29.50;;;;;;4976798;28;20508;-88
2021/04/17 16:46:16;;;;;;;10.57;4.30;;;14.00;29.20;;;;;;4989784;28;20493;-89
2021/04/17 16:48:46;;;;;;;5.93;4.73;;;14.30;30.00;;;;;;4995243;28;20425;-90
2021/04/17 16:51:11;;;;;;;4.63;4.43;;;14.60;29.20;;;;;;4995867;28;20429;-92
2021/04/17 16:53:37;;;;;;;6.40;5.80;;;14.80;30.00;;;;;;4976216;28;20416;-90
2021/04/17 16:56:03;;;;;;;5.87;5.53;;;16.40;30.70;;;;;;4975561;28;20214;-88
2021/04/17 16:58:28;;;;;;;6.53;5.37;;;14.70;29.90;;;;;;4977485;28;20170;-88
2021/04/17 17:00:54;;;;;;;6.43;4.97;;;14.20;29.90;;;;;;4975244;28;20633;-89
2021/04/17 17:03:20;;;;;;;5.50;4.87;;;14.50;30.80;;;;;;4958696;28;20261;-91
2021/04/17 17:05:56;;;;;;;6.60;5.93;;;14.50;31.10;;;;;;4997306;28;20417;-92
2021/04/17 17:11:07;;;;;;;5.97;5.37;;;14.40;30.90;;;;;;5209135;23;20493;-92
2021/04/17 17:13:35;;;;;;;8.33;5.17;;;14.00;31.50;;;;;;4957106;29;20444;-96
2021/04/17 17:16:06;;;;;;;7.40;5.73;;;14.20;32.40;;;;;;4975007;29;20581;-94
2021/04/17 17:18:42;;;;;;;6.73;5.27;;;14.60;32.10;;;;;;4976778;29;20466;-90
2021/04/17 17:21:08;;;;;;;7.00;6.03;;;16.00;32.00;;;;;;4975795;29;20441;-91
2021/04/17 17:23:34;;;;;;;5.33;4.80;;;15.50;34.10;;;;;;4964100;29;20426;-93
2021/04/17 17:26:00;;;;;;;4.20;3.87;;;15.50;33.20;;;;;;4947519;29;20247;-91
2021/04/17 17:28:25;;;;;;;8.30;5.80;;;15.50;33.50;;;;;;4964889;29;20476;-94
2021/04/17 17:30:51;;;;;;;7.37;6.67;;;14.60;33.70;;;;;;4945688;29;20182;-89
2021/04/17 17:33:22;;;;;;;15.13;9.97;;;13.50;30.70;;;;;;4976773;28;20185;-91
2021/04/17 17:35:51;;;;;;;6.17;5.40;;;14.20;32.60;;;;;;4976647;29;20271;-93
2021/04/17 17:38:17;;;;;;;5.77;5.23;;;15.90;34.40;;;;;;4976188;28;20453;-89
2021/04/17 17:40:44;;;;;;;7.03;4.43;;;14.30;32.80;;;;;;4961415;29;20438;-91
2021/04/17 17:43:10;;;;;;;4.57;4.20;;;14.30;32.10;;;;;;4972611;28;20178;-92
2021/04/17 17:45:37;;;;;;;5.03;4.73;;;15.40;34.70;;;;;;4967209;29;20485;-90
2021/04/17 17:48:04;;;;;;;7.47;5.10;;;14.40;33.00;;;;;;4931038;29;20214;-91
2021/04/17 17:50:31;;;;;;;10.70;6.10;;;14.70;33.10;;;;;;4963591;29;20426;-93
2021/04/17 17:52:57;;;;;;;5.80;4.30;;;13.80;32.20;;;;;;4964327;29;20422;-90
2021/04/17 17:55:23;;;;;;;5.97;5.47;;;15.60;34.30;;;;;;4965439;29;20824;-91
2021/04/17 17:57:48;;;;;;;6.20;4.30;;;14.20;33.60;;;;;;4968302;29;20198;-93
2021/04/17 18:00:15;;;;;;;6.67;5.40;;;15.70;34.80;;;;;;4943578;29;20598;-89
2021/04/17 18:02:45;;;;;;;9.90;6.67;;;13.80;31.90;;;;;;4942585;29;20190;-93
2021/04/17 18:05:15;;;;;;;6.13;5.20;;;14.00;31.80;;;;;;4975196;29;20433;-91
2021/04/17 18:10:19;;;;;;;6.30;4.80;;;13.60;32.10;;;;;;5412261;23;21031;-87
2021/04/17 18:12:58;;;;;;;12.80;8.07;;;15.90;34.30;;;;;;4977120;28;20421;-94
2021/04/17 18:15:25;;;;;;;3.70;3.50;;;15.30;35.60;;;;;;4995878;28;20487;-93
2021/04/17 18:20:26;;;;;;;4.60;4.20;;;13.50;32.20;;;;;;5049625;23;20492;-92
2021/04/17 18:22:52;;;;;;;4.83;4.40;;;13.20;34.70;;;;;;4959319;28;20469;-93
2021/04/17 18:25:28;;;;;;;4.40;4.10;;;15.70;35.80;;;;;;4976208;28;20175;-90
2021/04/17 18:27:57;;;;;;;6.07;4.10;;;15.00;33.80;;;;;;4977078;29;20760;-92
2021/04/17 18:30:23;;;;;;;5.57;5.07;;;15.20;34.10;;;;;;4942319;29;20426;-88
2021/04/17 18:32:49;;;;;;;6.07;4.67;;;13.50;32.70;;;;;;4936525;29;20434;-89
2021/04/17 18:35:43;;;;;;;5.30;4.80;;;13.20;32.70;;;;;;4942402;28;20197;-94
2021/04/17 18:38:12;;;;;;;4.83;4.57;;;14.00;33.40;;;;;;4953735;29;20453;-91
2021/04/17 18:40:43;;;;;;;4.60;4.20;;;12.30;33.50;;;;;;4957381;29;20498;-93
2021/04/17 18:43:12;;;;;;;6.60;5.10;;;13.70;33.40;;;;;;4956561;29;20438;-93
2021/04/17 18:48:13;;;;;;;6.93;5.20;;;13.30;33.20;;;;;;4995831;23;20495;-87
2021/04/17 18:50:42;;;;;;;4.30;4.10;;;14.80;35.70;;;;;;5296448;23;20885;-91
2021/04/17 18:58:12;;;;;;;7.77;4.50;;;13.10;33.10;;;;;;5140980;23;20485;-90
2021/04/17 19:00:47;;;;;;;7.20;4.40;;;11.80;33.70;;;;;;4996863;28;20441;-94
2021/04/17 19:03:13;;;;;;;10.43;5.80;;;12.90;35.60;;;;;;4973157;28;20173;-86
2021/04/17 19:05:39;;;;;;;11.10;4.70;;;13.40;33.80;;;;;;4971607;28;20446;-86
2021/04/17 19:08:05;;;;;;;3.50;3.37;;;13.10;32.80;;;;;;4954496;28;20432;-86
2021/04/17 19:10:30;;;;;;;3.83;3.00;;;12.90;32.70;;;;;;4971611;28;20405;-87
2021/04/17 19:12:56;;;;;;;3.60;3.30;;;13.10;32.90;;;;;;4953697;28;20425;-87
2021/04/17 19:15:25;;;;;;;11.13;6.37;;;12.70;32.70;;;;;;4954221;28;20558;-87
2021/04/17 19:17:55;;;;;;;6.03;5.30;;;13.00;32.80;;;;;;4971255;28;20177;-87
2021/04/17 19:20:52;;;;;;;4.77;4.43;;;12.90;32.80;;;;;;4987123;28;20401;-88
2021/04/17 19:23:17;;;;;;;12.13;5.50;;;12.80;32.70;;;;;;4996210;28;20409;-91
2021/04/17 19:28:18;;;;;;;5.13;4.73;;;12.70;32.80;;;;;;4976412;23;20232;-89
2021/04/17 20:37:03;;;;;;;3.27;3.10;;;11.20;36.10;;;;;;5709690;23;20486;-92
2021/04/17 20:42:20;;;;;;;2.73;2.20;;;11.10;32.40;;;;;;5095986;23;20479;-92
2021/04/17 20:44:52;;;;;;;3.10;2.77;;;11.70;34.10;;;;;;4944916;29;20522;-92